createdAt,value
2016-12-01T00:00:36.354Z,0
2016-12-01T00:10:49.875Z,0
2016-12-01T00:31:18.006Z,0
2016-12-01T00:41:32.818Z,0
2016-12-01T00:51:45.930Z,0
2016-12-01T01:01:59.914Z,0
2016-12-01T01:12:13.506Z,0
2016-12-01T01:22:26.926Z,0
2016-12-01T01:32:41.320Z,0
2016-12-01T01:42:54.641Z,0
2016-12-01T01:53:08.739Z,0
2016-12-01T02:03:22.798Z,0
2016-12-01T02:13:37.785Z,0
2016-12-01T02:23:52.030Z,0
2016-12-01T02:34:10.440Z,0
2016-12-01T02:44:20.269Z,0
2016-12-01T02:54:34.445Z,0
2016-12-01T03:04:48.820Z,0
2016-12-01T03:15:02.595Z,0
2016-12-01T03:25:16.095Z,0
2016-12-01T03:35:29.955Z,0
2016-12-01T03:45:44.413Z,0
2016-12-01T03:55:59.346Z,0
2016-12-01T04:06:13.624Z,0
2016-12-01T04:16:27.848Z,0
2016-12-01T04:26:41.300Z,0
2016-12-01T04:36:54.662Z,0
2016-12-01T04:47:09.339Z,0
2016-12-01T04:57:22.702Z,0
2016-12-01T05:07:36.434Z,0
2016-12-01T05:17:51.117Z,0
2016-12-01T05:28:04.661Z,0
2016-12-01T05:38:18.189Z,0
2016-12-01T05:48:32.863Z,0
2016-12-01T05:58:48.199Z,0
2016-12-01T06:09:01.823Z,0
2016-12-01T06:19:15.873Z,0
2016-12-01T06:29:29.396Z,0
2016-12-01T06:39:42.381Z,0
2016-12-01T06:49:57.237Z,0
2016-12-01T07:00:12.023Z,0
2016-12-01T07:10:26.010Z,0
2016-12-01T07:20:39.030Z,5
2016-12-01T07:30:52.701Z,10
2016-12-01T07:41:06.075Z,15
2016-12-01T07:51:20.197Z,25
2016-12-01T08:01:33.615Z,50
2016-12-01T08:11:46.756Z,55
2016-12-01T08:22:01.092Z,55
2016-12-01T08:32:14.225Z,65
2016-12-01T08:42:28.414Z,100
2016-12-01T08:52:42.073Z,160
2016-12-01T09:02:55.836Z,130
2016-12-01T09:13:09.410Z,110
2016-12-01T09:23:22.705Z,100
2016-12-01T09:33:37.031Z,140
2016-12-01T09:43:50.820Z,160
2016-12-01T09:54:04.000Z,120
2016-12-01T10:04:17.727Z,120
2016-12-01T10:14:30.907Z,120
2016-12-01T10:24:44.312Z,120
2016-12-01T10:34:57.961Z,120
2016-12-01T10:45:11.692Z,180
2016-12-01T10:55:25.638Z,165
2016-12-01T11:05:39.996Z,175
2016-12-01T11:15:55.062Z,240
2016-12-01T11:26:09.099Z,315
2016-12-01T11:36:24.128Z,275
2016-12-01T11:46:37.281Z,290
2016-12-01T12:07:05.606Z,170
2016-12-01T12:17:19.997Z,155
2016-12-01T12:27:33.883Z,100
2016-12-01T12:37:48.862Z,160
2016-12-01T12:48:01.992Z,120
2016-12-01T12:58:16.541Z,90
2016-12-01T13:08:29.794Z,90
2016-12-01T13:18:43.561Z,190
2016-12-01T13:28:57.463Z,100
2016-12-01T13:39:11.838Z,155
2016-12-01T13:49:25.957Z,95
2016-12-01T13:59:39.307Z,80
2016-12-01T14:09:54.031Z,70
2016-12-01T14:20:08.254Z,50
2016-12-01T14:30:23.045Z,65
2016-12-01T14:40:38.092Z,45
2016-12-01T14:50:53.046Z,35
2016-12-01T15:01:06.673Z,15
2016-12-01T15:11:20.352Z,10
2016-12-01T15:21:33.946Z,5
2016-12-01T15:31:47.743Z,0
2016-12-01T15:42:01.930Z,0
2016-12-01T15:52:16.081Z,0
2016-12-01T16:02:30.199Z,0
2016-12-01T16:12:43.335Z,0
2016-12-01T16:22:56.569Z,0
2016-12-01T16:33:10.592Z,0
2016-12-01T16:43:24.830Z,0
2016-12-01T16:53:38.244Z,0
2016-12-01T17:03:52.255Z,0
2016-12-01T17:14:06.481Z,0
2016-12-01T17:24:21.215Z,0
2016-12-01T17:34:35.175Z,0
2016-12-01T17:44:49.231Z,0
2016-12-01T17:55:03.596Z,0
2016-12-01T18:05:17.174Z,0
2016-12-01T18:15:30.841Z,0
2016-12-01T18:25:44.068Z,0
2016-12-01T18:35:58.240Z,0
2016-12-01T18:46:11.935Z,0
2016-12-01T18:56:26.865Z,0
2016-12-01T19:06:41.446Z,0
2016-12-01T19:16:55.882Z,0
2016-12-01T19:27:10.366Z,0
2016-12-01T19:37:23.508Z,0
2016-12-01T19:47:37.416Z,0
2016-12-01T19:57:51.449Z,0
2016-12-01T20:08:04.698Z,0
2016-12-01T20:18:19.405Z,0
2016-12-01T20:28:34.374Z,0
2016-12-01T20:49:03.179Z,0
2016-12-01T20:59:16.705Z,0
2016-12-01T21:09:31.178Z,0
2016-12-01T21:19:45.174Z,0
2016-12-01T21:29:59.356Z,0
2016-12-01T21:40:14.024Z,0
2016-12-01T21:50:28.478Z,0
2016-12-01T22:00:43.266Z,0
2016-12-01T22:10:58.166Z,0
2016-12-01T22:21:13.094Z,0
2016-12-01T22:31:27.632Z,0
2016-12-01T22:41:42.155Z,0
2016-12-01T22:51:56.725Z,0
2016-12-01T23:02:09.836Z,0
2016-12-01T23:12:23.312Z,0
2016-12-01T23:22:37.457Z,0
2016-12-01T23:32:52.048Z,0
2016-12-01T23:43:06.469Z,0
2016-12-01T23:53:20.934Z,0
